createdAt,value
2018-06-09T00:00:15.290Z,19.00
2018-06-09T00:02:46.822Z,19.00
2018-06-09T00:05:16.639Z,19.00
2018-06-09T00:07:46.220Z,19.00
2018-06-09T00:10:14.706Z,19.00
2018-06-09T00:12:43.142Z,18.90
2018-06-09T00:15:11.586Z,18.90
2018-06-09T00:17:40.075Z,18.90
2018-06-09T00:20:08.507Z,18.80
2018-06-09T00:22:36.934Z,18.80
2018-06-09T00:25:05.394Z,18.80
2018-06-09T00:27:33.831Z,18.70
2018-06-09T00:30:02.266Z,18.70
2018-06-09T00:32:30.679Z,18.70
2018-06-09T00:34:59.133Z,18.70
2018-06-09T00:37:27.574Z,18.60
2018-06-09T00:39:56.007Z,18.60
2018-06-09T00:42:24.460Z,18.60
2018-06-09T00:44:52.896Z,18.60
2018-06-09T00:47:21.346Z,18.70
2018-06-09T00:49:49.787Z,18.60
2018-06-09T00:52:18.218Z,18.60
2018-06-09T00:57:14.767Z,18.60
2018-06-09T00:59:43.194Z,18.60
2018-06-09T01:02:25.521Z,18.60
2018-06-09T01:05:05.262Z,18.60
2018-06-09T01:07:33.714Z,18.60
2018-06-09T01:10:02.141Z,18.60
2018-06-09T01:12:31.559Z,18.60
2018-06-09T01:14:59.987Z,18.50
2018-06-09T01:17:28.442Z,18.50
2018-06-09T01:19:56.961Z,18.50
2018-06-09T01:22:25.424Z,18.50
2018-06-09T01:24:53.851Z,18.60
2018-06-09T01:27:22.274Z,18.60
2018-06-09T01:29:50.724Z,18.60
2018-06-09T01:32:19.174Z,18.60
2018-06-09T01:34:47.611Z,18.70
2018-06-09T01:37:16.030Z,18.60
2018-06-09T01:39:44.509Z,18.60
2018-06-09T01:42:12.988Z,18.60
2018-06-09T01:44:41.421Z,18.60
2018-06-09T01:49:37.978Z,18.70
2018-06-09T01:52:06.413Z,18.70
2018-06-09T01:54:34.833Z,18.70
2018-06-09T01:57:03.258Z,18.70
2018-06-09T01:59:31.737Z,18.70
2018-06-09T02:02:00.182Z,18.70
2018-06-09T02:04:28.637Z,18.60
2018-06-09T02:06:57.093Z,18.70
2018-06-09T02:09:25.550Z,18.60
2018-06-09T02:11:54.011Z,18.60
2018-06-09T02:14:22.511Z,18.60
2018-06-09T02:16:50.926Z,18.60
2018-06-09T02:19:19.347Z,18.60
2018-06-09T02:21:47.802Z,18.70
2018-06-09T02:24:16.231Z,18.70
2018-06-09T02:26:44.658Z,18.70
2018-06-09T02:29:13.094Z,18.70
2018-06-09T02:31:41.543Z,18.60
2018-06-09T02:34:09.979Z,18.60
2018-06-09T02:36:38.394Z,18.60
2018-06-09T02:39:08.078Z,18.60
2018-06-09T02:41:36.538Z,18.60
2018-06-09T02:44:05.522Z,18.60
2018-06-09T02:46:33.939Z,18.60
2018-06-09T02:49:02.395Z,18.60
2018-06-09T02:51:30.850Z,18.60
2018-06-09T02:53:59.288Z,18.60
2018-06-09T02:56:28.735Z,18.50
2018-06-09T02:58:57.281Z,18.50
2018-06-09T03:01:25.730Z,18.50
2018-06-09T03:03:54.171Z,18.50
2018-06-09T03:06:22.615Z,18.40
2018-06-09T03:08:51.098Z,18.40
2018-06-09T03:11:19.534Z,18.40
2018-06-09T03:13:47.974Z,18.40
2018-06-09T03:16:16.768Z,18.30
2018-06-09T03:18:45.267Z,18.30
2018-06-09T03:21:13.699Z,18.40
2018-06-09T03:23:42.124Z,18.30
2018-06-09T03:26:10.567Z,18.30
2018-06-09T03:28:39.006Z,18.30
2018-06-09T03:31:07.450Z,18.20
2018-06-09T03:33:35.893Z,18.20
2018-06-09T03:36:04.857Z,18.20
2018-06-09T03:38:33.333Z,18.10
2018-06-09T03:41:02.379Z,18.10
2018-06-09T03:43:30.851Z,18.10
2018-06-09T03:45:59.271Z,18.10
2018-06-09T03:48:27.714Z,18.10
2018-06-09T03:50:56.148Z,18.10
2018-06-09T03:53:24.578Z,18.10
2018-06-09T03:55:53.019Z,18.10
2018-06-09T03:58:21.501Z,18.10
2018-06-09T04:00:49.942Z,18.00
2018-06-09T04:03:18.357Z,17.90
2018-06-09T04:05:46.786Z,18.00
2018-06-09T04:08:15.222Z,18.00
2018-06-09T04:10:43.674Z,18.00
2018-06-09T04:13:12.118Z,18.00
2018-06-09T04:15:40.551Z,17.90
2018-06-09T04:18:08.982Z,18.00
2018-06-09T04:20:38.258Z,17.90
2018-06-09T04:23:06.699Z,17.90
2018-06-09T04:25:35.146Z,17.90
2018-06-09T04:28:03.662Z,17.90
2018-06-09T04:30:32.168Z,17.90
2018-06-09T04:33:00.628Z,17.90
2018-06-09T04:35:29.053Z,18.00
2018-06-09T04:37:57.564Z,17.90
2018-06-09T04:40:26.017Z,17.90
2018-06-09T04:42:54.498Z,17.90
2018-06-09T04:45:23.497Z,18.00
2018-06-09T04:47:52.037Z,18.00
2018-06-09T04:50:20.482Z,18.00
2018-06-09T04:52:48.926Z,18.10
2018-06-09T04:55:17.355Z,18.10
2018-06-09T04:57:45.809Z,18.10
2018-06-09T05:00:14.260Z,18.10
2018-06-09T05:02:42.778Z,18.20
2018-06-09T05:05:11.207Z,18.30
2018-06-09T05:07:39.631Z,18.30
2018-06-09T05:10:08.074Z,18.40
2018-06-09T05:12:36.518Z,18.50
2018-06-09T05:15:05.460Z,18.50
2018-06-09T05:17:33.917Z,18.50
2018-06-09T05:20:02.387Z,18.60
2018-06-09T05:22:30.815Z,18.60
2018-06-09T05:24:59.266Z,18.70
2018-06-09T05:27:27.694Z,18.80
2018-06-09T05:29:56.140Z,18.90
2018-06-09T05:32:24.570Z,19.10
2018-06-09T05:34:53.000Z,19.30
2018-06-09T05:37:21.467Z,19.50
2018-06-09T05:39:49.931Z,19.70
2018-06-09T05:42:18.378Z,19.90
2018-06-09T05:44:46.804Z,20.10
2018-06-09T05:47:15.283Z,20.20
2018-06-09T05:49:44.066Z,20.30
2018-06-09T05:52:12.511Z,20.40
2018-06-09T05:54:40.981Z,20.50
2018-06-09T05:57:09.468Z,20.70
2018-06-09T05:59:37.921Z,20.90
2018-06-09T06:02:07.009Z,21.00
2018-06-09T06:04:35.498Z,21.10
2018-06-09T06:07:03.942Z,21.10
2018-06-09T06:09:32.395Z,21.10
2018-06-09T06:12:00.831Z,21.00
2018-06-09T06:14:29.314Z,20.90
2018-06-09T06:16:57.791Z,20.90
2018-06-09T06:19:26.237Z,21.00
2018-06-09T06:21:54.675Z,21.10
2018-06-09T06:24:23.109Z,21.10
2018-06-09T06:26:51.547Z,21.10
2018-06-09T06:29:19.974Z,21.20
2018-06-09T06:34:16.595Z,21.30
2018-06-09T06:36:45.023Z,21.30
2018-06-09T06:39:13.462Z,21.40
2018-06-09T06:41:41.899Z,21.50
2018-06-09T06:44:10.369Z,21.50
2018-06-09T06:46:38.875Z,21.50
2018-06-09T06:49:07.358Z,21.40
2018-06-09T06:51:35.806Z,21.50
2018-06-09T06:56:32.418Z,21.50
2018-06-09T06:59:00.869Z,21.50
2018-06-09T07:01:29.332Z,21.60
2018-06-09T07:03:57.771Z,21.70
2018-06-09T07:06:26.246Z,22.40
2018-06-09T07:08:54.690Z,24.30
2018-06-09T07:11:23.215Z,24.50
2018-06-09T07:13:51.647Z,24.60
2018-06-09T07:16:20.121Z,24.60
2018-06-09T07:18:48.562Z,24.70
2018-06-09T07:21:17.007Z,26.00
2018-06-09T07:23:45.471Z,27.40
2018-06-09T07:26:13.931Z,28.00
2018-06-09T07:28:42.477Z,28.20
2018-06-09T07:31:10.904Z,29.00
2018-06-09T07:33:39.386Z,29.70
2018-06-09T07:36:07.855Z,29.70
2018-06-09T07:38:36.315Z,29.60
2018-06-09T07:41:04.798Z,29.30
2018-06-09T07:43:33.314Z,30.00
2018-06-09T07:46:01.828Z,29.50
2018-06-09T07:48:30.290Z,30.30
2018-06-09T07:51:00.292Z,31.50
2018-06-09T07:53:28.825Z,32.30
2018-06-09T07:55:57.294Z,33.00
2018-06-09T07:58:25.794Z,33.70
2018-06-09T08:00:54.282Z,34.20
2018-06-09T08:03:22.823Z,34.40
2018-06-09T08:05:51.366Z,35.00
2018-06-09T08:08:19.818Z,35.00
2018-06-09T08:10:48.283Z,35.00
2018-06-09T08:13:16.720Z,35.30
2018-06-09T08:15:45.150Z,35.60
2018-06-09T08:18:13.838Z,36.00
2018-06-09T08:20:42.271Z,36.60
2018-06-09T08:23:10.754Z,37.00
2018-06-09T08:25:39.210Z,37.30
2018-06-09T08:28:07.678Z,37.70
2018-06-09T08:30:36.190Z,38.00
2018-06-09T08:33:04.711Z,37.60
2018-06-09T08:35:33.435Z,37.80
2018-06-09T08:38:01.887Z,38.40
2018-06-09T08:40:30.742Z,38.40
2018-06-09T08:42:59.296Z,38.80
2018-06-09T08:45:27.825Z,39.30
2018-06-09T08:47:56.318Z,39.20
2018-06-09T08:50:24.811Z,38.30
2018-06-09T08:52:53.272Z,37.00
2018-06-09T08:55:21.797Z,36.10
2018-06-09T08:57:50.265Z,35.40
2018-06-09T09:00:20.239Z,35.10
2018-06-09T09:02:50.460Z,34.70
2018-06-09T09:05:19.000Z,34.50
2018-06-09T09:07:48.042Z,34.50
2018-06-09T09:10:17.417Z,35.50
2018-06-09T09:12:47.485Z,35.80
2018-06-09T09:17:47.091Z,35.40
2018-06-09T09:20:15.918Z,35.20
2018-06-09T09:22:45.398Z,34.60
2018-06-09T09:25:14.459Z,34.10
2018-06-09T09:27:43.295Z,34.00
2018-06-09T09:30:11.786Z,33.90
2018-06-09T09:32:40.302Z,33.50
2018-06-09T09:35:08.770Z,33.30
2018-06-09T09:37:37.226Z,33.20
2018-06-09T09:40:05.751Z,32.80
2018-06-09T09:42:34.506Z,32.90
2018-06-09T09:45:02.959Z,32.90
2018-06-09T09:47:31.988Z,32.70
2018-06-09T09:50:00.658Z,32.30
2018-06-09T09:52:29.821Z,32.00
2018-06-09T09:54:58.294Z,31.50
2018-06-09T09:57:26.812Z,31.50
2018-06-09T09:59:55.261Z,31.60
2018-06-09T10:02:24.753Z,31.50
2018-06-09T10:04:53.211Z,31.50
2018-06-09T10:07:21.714Z,31.40
2018-06-09T10:09:50.194Z,31.30
2018-06-09T10:12:18.661Z,31.20
2018-06-09T10:14:47.099Z,31.00
2018-06-09T10:17:16.109Z,31.20
2018-06-09T10:19:51.854Z,31.30
2018-06-09T10:24:49.087Z,31.20
2018-06-09T10:27:19.110Z,31.00
2018-06-09T10:29:48.018Z,30.90
2018-06-09T10:32:16.510Z,30.50
2018-06-09T10:34:45.597Z,30.20
2018-06-09T10:37:14.189Z,30.10
2018-06-09T10:39:42.647Z,29.80
2018-06-09T10:42:11.096Z,29.50
2018-06-09T10:44:39.611Z,29.30
2018-06-09T10:47:08.058Z,29.40
2018-06-09T10:49:36.553Z,29.40
2018-06-09T10:52:05.089Z,29.50
2018-06-09T10:54:33.604Z,29.70
2018-06-09T10:57:03.045Z,29.70
2018-06-09T10:59:32.742Z,29.70
2018-06-09T11:02:02.778Z,29.80
2018-06-09T11:04:31.279Z,30.00
2018-06-09T11:06:59.888Z,30.00
2018-06-09T11:09:28.451Z,30.00
2018-06-09T11:11:56.901Z,30.00
2018-06-09T11:14:25.428Z,29.90
2018-06-09T11:16:53.925Z,29.90
2018-06-09T11:19:22.538Z,29.70
2018-06-09T11:21:51.467Z,29.50
2018-06-09T11:24:19.955Z,29.50
2018-06-09T11:26:48.542Z,29.40
2018-06-09T11:29:17.031Z,29.20
2018-06-09T11:31:45.508Z,29.20
2018-06-09T11:34:13.986Z,29.30
2018-06-09T11:36:42.454Z,29.20
2018-06-09T11:39:10.899Z,29.20
2018-06-09T11:41:39.351Z,29.20
2018-06-09T11:44:07.975Z,29.20
2018-06-09T11:46:36.403Z,29.20
2018-06-09T11:49:04.865Z,29.10
2018-06-09T11:51:33.367Z,29.10
2018-06-09T11:54:01.816Z,28.90
2018-06-09T11:56:30.275Z,29.00
2018-06-09T11:58:58.719Z,29.00
2018-06-09T12:01:27.252Z,28.90
2018-06-09T12:03:55.746Z,29.00
2018-06-09T12:06:24.195Z,28.90
2018-06-09T12:08:52.639Z,28.80
2018-06-09T12:11:21.184Z,28.60
2018-06-09T12:13:49.626Z,28.60
2018-06-09T12:16:18.139Z,28.60
2018-06-09T12:18:46.672Z,28.70
2018-06-09T12:21:15.140Z,28.80
2018-06-09T12:23:43.599Z,28.90
2018-06-09T12:26:12.191Z,28.90
2018-06-09T12:28:40.666Z,28.90
2018-06-09T12:31:09.146Z,28.90
2018-06-09T12:33:37.582Z,29.00
2018-06-09T12:36:06.058Z,28.90
2018-06-09T12:38:34.527Z,28.80
2018-06-09T12:41:03.054Z,28.70
2018-06-09T12:43:32.246Z,28.60
2018-06-09T12:46:00.842Z,28.40
2018-06-09T12:48:29.384Z,28.30
2018-06-09T12:50:57.829Z,28.30
2018-06-09T12:53:26.318Z,28.30
2018-06-09T12:55:54.767Z,28.30
2018-06-09T12:58:23.238Z,28.40
2018-06-09T13:00:51.674Z,28.40
2018-06-09T13:03:20.128Z,28.40
2018-06-09T13:05:48.629Z,28.50
2018-06-09T13:08:17.089Z,28.50
2018-06-09T13:10:46.812Z,28.50
2018-06-09T13:13:15.336Z,28.40
2018-06-09T13:15:43.793Z,28.40
2018-06-09T13:18:12.414Z,28.40
2018-06-09T13:20:40.903Z,28.40
2018-06-09T13:23:09.423Z,28.40
2018-06-09T13:25:37.878Z,28.30
2018-06-09T13:28:06.506Z,28.30
2018-06-09T13:30:34.963Z,28.20
2018-06-09T13:33:03.758Z,28.20
2018-06-09T13:35:32.199Z,28.00
2018-06-09T13:40:28.818Z,28.00
2018-06-09T13:42:57.295Z,28.00
2018-06-09T13:45:25.767Z,28.00
2018-06-09T13:47:54.240Z,28.10
2018-06-09T13:50:22.783Z,28.10
2018-06-09T13:52:51.226Z,28.10
2018-06-09T13:55:19.674Z,28.10
2018-06-09T13:57:48.105Z,28.10
2018-06-09T14:00:16.539Z,28.10
2018-06-09T14:02:44.994Z,28.10
2018-06-09T14:05:13.455Z,28.10
2018-06-09T14:07:41.898Z,28.10
2018-06-09T14:10:10.397Z,28.10
2018-06-09T14:12:38.851Z,28.10
2018-06-09T14:15:07.345Z,28.10
2018-06-09T14:17:35.773Z,28.10
2018-06-09T14:20:04.528Z,28.00
2018-06-09T14:22:33.018Z,28.00
2018-06-09T14:25:01.483Z,27.90
2018-06-09T14:27:29.934Z,27.90
2018-06-09T14:29:58.519Z,27.90
2018-06-09T14:32:27.939Z,27.90
2018-06-09T14:34:56.415Z,27.90
2018-06-09T14:37:24.922Z,27.90
2018-06-09T14:39:53.392Z,27.90
2018-06-09T14:42:21.900Z,27.90
2018-06-09T14:44:50.424Z,27.80
2018-06-09T14:47:19.782Z,27.90
2018-06-09T14:49:48.274Z,27.90
2018-06-09T14:52:16.719Z,27.80
2018-06-09T14:54:45.179Z,27.80
2018-06-09T14:59:41.819Z,27.90
2018-06-09T15:02:10.298Z,27.90
2018-06-09T15:04:38.760Z,27.90
2018-06-09T15:07:07.208Z,27.90
2018-06-09T15:09:35.655Z,27.90
2018-06-09T15:12:04.107Z,27.90
2018-06-09T15:14:32.556Z,27.90
2018-06-09T15:17:01.066Z,27.80
2018-06-09T15:19:29.571Z,27.80
2018-06-09T15:21:58.012Z,27.80
2018-06-09T15:24:26.464Z,27.80
2018-06-09T15:29:23.111Z,27.90
2018-06-09T15:31:51.606Z,27.90
2018-06-09T15:34:20.063Z,27.90
2018-06-09T15:36:48.555Z,27.90
2018-06-09T15:39:17.003Z,27.80
2018-06-09T15:41:45.512Z,27.80
2018-06-09T15:44:13.960Z,27.70
2018-06-09T15:46:42.560Z,27.70
2018-06-09T15:49:11.051Z,27.70
2018-06-09T15:51:39.606Z,27.70
2018-06-09T15:54:08.045Z,27.70
2018-06-09T15:56:36.555Z,27.70
2018-06-09T15:59:05.024Z,27.60
2018-06-09T16:01:33.554Z,27.60
2018-06-09T16:04:02.203Z,27.60
2018-06-09T16:06:30.698Z,27.60
2018-06-09T16:08:59.248Z,27.60
2018-06-09T16:11:27.695Z,27.60
2018-06-09T16:13:56.139Z,27.60
2018-06-09T16:16:24.611Z,27.60
2018-06-09T16:18:53.124Z,27.60
2018-06-09T16:21:21.576Z,27.60
2018-06-09T16:23:50.086Z,27.60
2018-06-09T16:26:18.535Z,27.60
2018-06-09T16:28:47.015Z,27.60
2018-06-09T16:31:15.501Z,27.60
2018-06-09T16:33:43.948Z,27.60
2018-06-09T16:36:12.403Z,27.60
2018-06-09T16:38:40.879Z,27.60
2018-06-09T16:41:09.342Z,27.50
2018-06-09T16:43:37.865Z,27.50
2018-06-09T16:46:06.325Z,27.50
2018-06-09T16:48:34.791Z,27.50
2018-06-09T16:51:03.294Z,27.40
2018-06-09T16:53:31.800Z,27.40
2018-06-09T16:56:00.249Z,27.40
2018-06-09T16:58:28.708Z,27.30
2018-06-09T17:00:57.214Z,27.30
2018-06-09T17:03:25.711Z,27.20
2018-06-09T17:05:54.170Z,27.20
2018-06-09T17:08:22.885Z,27.20
2018-06-09T17:10:51.404Z,27.10
2018-06-09T17:13:19.807Z,27.00
2018-06-09T17:15:48.294Z,27.00
2018-06-09T17:18:16.761Z,26.90
2018-06-09T17:20:45.216Z,26.80
2018-06-09T17:23:13.694Z,26.80
2018-06-09T17:25:42.143Z,26.80
2018-06-09T17:28:10.772Z,26.80
2018-06-09T17:30:39.198Z,26.70
2018-06-09T17:33:07.670Z,26.70
2018-06-09T17:35:36.170Z,26.60
2018-06-09T17:38:04.673Z,26.60
2018-06-09T17:40:33.139Z,26.60
2018-06-09T17:43:01.650Z,26.50
2018-06-09T17:45:30.130Z,26.50
2018-06-09T17:47:58.587Z,26.50
2018-06-09T17:50:27.102Z,26.40
2018-06-09T17:52:55.549Z,26.40
2018-06-09T17:55:24.011Z,26.30
2018-06-09T17:57:52.455Z,26.30
2018-06-09T18:00:20.927Z,26.30
2018-06-09T18:02:49.378Z,26.20
2018-06-09T18:05:17.842Z,26.20
2018-06-09T18:07:46.303Z,26.20
2018-06-09T18:10:14.763Z,26.10
2018-06-09T18:12:43.258Z,26.10
2018-06-09T18:17:39.855Z,26.00
2018-06-09T18:20:08.739Z,25.90
2018-06-09T18:22:37.191Z,25.90
2018-06-09T18:25:05.988Z,25.90
2018-06-09T18:27:34.462Z,25.90
2018-06-09T18:30:02.915Z,25.80
2018-06-09T18:32:31.377Z,25.70
2018-06-09T18:34:59.831Z,25.70
2018-06-09T18:37:28.293Z,25.60
2018-06-09T18:39:56.735Z,25.60
2018-06-09T18:42:25.195Z,25.50
2018-06-09T18:44:53.658Z,25.50
2018-06-09T18:47:22.122Z,25.40
2018-06-09T18:49:50.582Z,25.40
2018-06-09T18:52:19.059Z,25.30
2018-06-09T18:54:47.506Z,25.30
2018-06-09T18:57:15.998Z,25.20
2018-06-09T18:59:44.450Z,25.20
2018-06-09T19:02:12.923Z,25.10
2018-06-09T19:04:41.367Z,25.00
2018-06-09T19:07:09.831Z,25.00
2018-06-09T19:09:38.258Z,25.00
2018-06-09T19:12:06.728Z,25.00
2018-06-09T19:14:35.174Z,25.00
2018-06-09T19:17:03.635Z,25.00
2018-06-09T19:19:32.082Z,24.90
2018-06-09T19:22:00.558Z,24.90
2018-06-09T19:24:29.006Z,24.80
2018-06-09T19:26:57.460Z,24.80
2018-06-09T19:29:25.948Z,24.80
2018-06-09T19:31:54.398Z,24.70
2018-06-09T19:34:22.934Z,24.70
2018-06-09T19:36:51.667Z,24.60
2018-06-09T19:39:20.112Z,24.60
2018-06-09T19:41:48.563Z,24.60
2018-06-09T19:44:17.576Z,24.60
2018-06-09T19:46:46.073Z,24.50
2018-06-09T19:49:14.531Z,24.50
2018-06-09T19:51:42.970Z,24.50
2018-06-09T19:54:11.458Z,24.50
2018-06-09T19:56:39.955Z,24.50
2018-06-09T19:59:08.423Z,24.50
2018-06-09T20:01:36.875Z,24.40
2018-06-09T20:04:05.383Z,24.40
2018-06-09T20:06:33.834Z,24.30
2018-06-09T20:09:02.381Z,24.20
2018-06-09T20:11:31.103Z,24.20
2018-06-09T20:13:59.570Z,24.10
2018-06-09T20:16:28.030Z,24.00
2018-06-09T20:18:56.547Z,24.00
2018-06-09T20:21:24.997Z,24.00
2018-06-09T20:23:53.441Z,24.00
2018-06-09T20:26:21.943Z,24.00
2018-06-09T20:28:50.398Z,23.90
2018-06-09T20:31:18.860Z,23.70
2018-06-09T20:33:47.311Z,23.50
2018-06-09T20:36:15.782Z,23.30
2018-06-09T20:38:44.330Z,23.10
2018-06-09T20:41:12.802Z,22.90
2018-06-09T20:43:41.239Z,22.60
2018-06-09T20:46:09.745Z,22.30
2018-06-09T20:48:38.234Z,22.10
2018-06-09T20:51:06.670Z,21.90
2018-06-09T20:53:35.146Z,21.80
2018-06-09T20:56:04.070Z,21.70
2018-06-09T20:58:41.919Z,21.60
2018-06-09T21:01:11.174Z,21.50
2018-06-09T21:03:39.643Z,21.40
2018-06-09T21:06:08.161Z,21.40
2018-06-09T21:08:36.633Z,21.40
2018-06-09T21:11:05.119Z,21.30
2018-06-09T21:13:33.583Z,21.20
2018-06-09T21:16:02.070Z,21.20
2018-06-09T21:18:30.523Z,21.20
2018-06-09T21:20:58.997Z,21.10
2018-06-09T21:23:27.450Z,21.00
2018-06-09T21:25:55.940Z,20.90
2018-06-09T21:28:25.757Z,20.90
2018-06-09T21:30:59.561Z,20.80
2018-06-09T21:33:44.574Z,20.80
2018-06-09T21:36:14.762Z,20.80
2018-06-09T21:38:48.563Z,20.80
2018-06-09T21:41:27.256Z,20.80
2018-06-09T21:43:59.939Z,20.80
2018-06-09T21:46:34.338Z,20.80
2018-06-09T21:49:02.778Z,20.70
2018-06-09T21:51:31.935Z,20.70
2018-06-09T21:54:00.386Z,20.80
2018-06-09T21:56:28.867Z,20.80
2018-06-09T21:58:57.321Z,20.80
2018-06-09T22:01:25.767Z,20.80
2018-06-09T22:03:54.214Z,20.80
2018-06-09T22:06:22.675Z,20.80
2018-06-09T22:08:51.111Z,20.80
2018-06-09T22:11:21.958Z,20.70
2018-06-09T22:13:50.462Z,20.70
2018-06-09T22:16:18.927Z,20.60
2018-06-09T22:18:47.398Z,20.60
2018-06-09T22:21:15.857Z,20.60
2018-06-09T22:23:44.293Z,20.50
2018-06-09T22:26:16.792Z,20.50
2018-06-09T22:28:45.239Z,20.50
2018-06-09T22:31:13.710Z,20.50
2018-06-09T22:33:42.185Z,20.50
2018-06-09T22:36:10.627Z,20.40
2018-06-09T22:38:39.071Z,20.40
2018-06-09T22:41:07.521Z,20.40
2018-06-09T22:43:35.962Z,20.40
2018-06-09T22:46:04.436Z,20.40
2018-06-09T22:48:32.886Z,20.30
2018-06-09T22:53:29.458Z,20.30
2018-06-09T22:55:57.899Z,20.30
2018-06-09T22:58:26.345Z,20.20
2018-06-09T23:00:57.008Z,20.20
2018-06-09T23:03:25.667Z,20.30
2018-06-09T23:05:54.106Z,20.20
2018-06-09T23:08:22.594Z,20.30
2018-06-09T23:10:51.039Z,20.30
2018-06-09T23:13:19.482Z,20.30
2018-06-09T23:15:47.924Z,20.30
2018-06-09T23:18:16.367Z,20.30
2018-06-09T23:20:44.821Z,20.30
2018-06-09T23:23:13.272Z,20.30
2018-06-09T23:25:41.714Z,20.40
2018-06-09T23:28:10.198Z,20.40
2018-06-09T23:30:38.720Z,20.40
2018-06-09T23:33:07.158Z,20.40
2018-06-09T23:35:35.625Z,20.40
2018-06-09T23:38:04.094Z,20.40
2018-06-09T23:40:32.546Z,20.40
2018-06-09T23:43:00.979Z,20.30
2018-06-09T23:45:29.444Z,20.30
2018-06-09T23:47:57.885Z,20.30
2018-06-09T23:50:26.315Z,20.30
2018-06-09T23:52:54.767Z,20.30
2018-06-09T23:55:23.218Z,20.30
2018-06-09T23:57:51.702Z,20.30
